createdAt,value
2023-05-06T00:00:13.745Z,4.97
2023-05-06T00:02:42.396Z,6.47
2023-05-06T00:05:09.127Z,5.15
2023-05-06T00:07:35.650Z,6.38
2023-05-06T00:10:01.958Z,5.43
2023-05-06T00:12:28.369Z,5.63
2023-05-06T00:14:54.669Z,6.70
2023-05-06T00:17:20.983Z,5.40
2023-05-06T00:19:47.313Z,5.15
2023-05-06T00:22:13.657Z,5.63
2023-05-06T00:24:39.972Z,6.05
2023-05-06T00:27:06.320Z,6.32
2023-05-06T00:29:32.679Z,5.25
2023-05-06T00:31:59.021Z,5.00
2023-05-06T00:34:25.428Z,4.78
2023-05-06T00:36:51.744Z,5.13
2023-05-06T00:39:18.062Z,5.40
2023-05-06T00:41:44.435Z,5.32
2023-05-06T00:44:10.752Z,5.55
2023-05-06T00:46:37.551Z,4.68
2023-05-06T00:49:03.937Z,4.45
2023-05-06T00:51:30.345Z,6.78
2023-05-06T00:53:56.676Z,6.63
2023-05-06T00:56:23.050Z,5.75
2023-05-06T00:58:49.387Z,5.63
2023-05-06T01:01:15.840Z,6.55
2023-05-06T01:03:42.318Z,5.32
2023-05-06T01:06:08.877Z,4.93
2023-05-06T01:08:35.527Z,5.70
2023-05-06T01:11:01.919Z,5.68
2023-05-06T01:13:28.340Z,6.72
2023-05-06T01:15:54.701Z,5.07
2023-05-06T01:18:21.147Z,5.35
2023-05-06T01:20:47.501Z,5.38
2023-05-06T01:23:13.830Z,6.38
2023-05-06T01:25:40.209Z,5.28
2023-05-06T01:28:06.523Z,5.93
2023-05-06T01:30:32.843Z,5.55
2023-05-06T01:32:59.492Z,7.65
2023-05-06T01:35:25.854Z,6.95
2023-05-06T01:37:52.470Z,6.93
2023-05-06T01:40:18.850Z,5.72
2023-05-06T01:42:45.170Z,5.45
2023-05-06T01:45:11.622Z,5.07
2023-05-06T01:47:38.106Z,6.68
2023-05-06T01:50:04.989Z,6.75
2023-05-06T01:52:32.588Z,5.68
2023-05-06T01:54:58.973Z,5.85
2023-05-06T01:57:25.313Z,5.40
2023-05-06T01:59:51.647Z,5.45
2023-05-06T02:02:18.044Z,5.57
2023-05-06T02:04:44.377Z,5.68
2023-05-06T02:07:10.751Z,5.78
2023-05-06T02:09:37.307Z,5.05
2023-05-06T02:12:04.210Z,6.45
2023-05-06T02:14:30.553Z,5.65
2023-05-06T02:16:58.992Z,6.22
2023-05-06T02:19:25.328Z,7.70
2023-05-06T02:21:51.678Z,5.72
2023-05-06T02:24:18.044Z,5.57
2023-05-06T02:26:44.493Z,5.95
2023-05-06T02:29:10.903Z,6.97
2023-05-06T02:31:37.355Z,7.35
2023-05-06T02:34:03.789Z,6.65
2023-05-06T02:36:30.215Z,6.88
2023-05-06T02:38:56.598Z,7.03
2023-05-06T02:41:23.017Z,5.07
2023-05-06T02:43:49.329Z,6.03
2023-05-06T02:46:15.776Z,6.13
2023-05-06T02:48:42.172Z,6.78
2023-05-06T02:51:08.563Z,7.38
2023-05-06T02:53:34.989Z,5.55
2023-05-06T02:56:01.437Z,6.50
2023-05-06T02:58:27.978Z,6.70
2023-05-06T03:00:54.465Z,5.47
2023-05-06T03:03:20.848Z,6.20
2023-05-06T03:05:47.193Z,7.60
2023-05-06T03:08:13.572Z,6.43
2023-05-06T03:10:40.640Z,6.70
2023-05-06T03:13:07.040Z,5.10
2023-05-06T03:15:33.635Z,6.13
2023-05-06T03:18:00.025Z,6.50
2023-05-06T03:20:26.720Z,5.65
2023-05-06T03:22:55.294Z,6.78
2023-05-06T03:25:21.950Z,6.07
2023-05-06T03:27:48.804Z,5.90
2023-05-06T03:30:19.070Z,6.25
2023-05-06T03:32:47.335Z,6.32
2023-05-06T03:35:17.732Z,6.65
2023-05-06T03:37:48.142Z,6.20
2023-05-06T03:40:15.345Z,6.47
2023-05-06T03:42:41.752Z,5.95
2023-05-06T03:45:09.318Z,6.18
2023-05-06T03:47:36.551Z,6.85
2023-05-06T03:50:04.446Z,5.60
2023-05-06T03:52:33.230Z,5.65
2023-05-06T03:55:00.218Z,5.68
2023-05-06T03:57:28.040Z,6.47
2023-05-06T03:59:54.421Z,5.95
2023-05-06T04:02:20.873Z,6.22
2023-05-06T04:04:47.282Z,6.50
2023-05-06T04:07:13.728Z,7.00
2023-05-06T04:09:40.080Z,5.32
2023-05-06T04:12:07.925Z,6.22
2023-05-06T04:14:35.197Z,6.63
2023-05-06T04:17:02.034Z,5.93
2023-05-06T04:19:28.394Z,6.75
2023-05-06T04:21:54.853Z,6.90
2023-05-06T04:24:21.172Z,6.50
2023-05-06T04:26:47.553Z,6.47
2023-05-06T04:29:14.480Z,5.53
2023-05-06T04:31:51.775Z,5.68
2023-05-06T04:34:19.012Z,6.03
2023-05-06T04:36:45.356Z,5.72
2023-05-06T04:39:20.852Z,5.90
2023-05-06T04:41:48.441Z,6.55
2023-05-06T04:44:19.562Z,6.82
2023-05-06T04:46:46.843Z,5.68
2023-05-06T04:49:14.289Z,6.60
2023-05-06T04:51:40.635Z,6.75
2023-05-06T04:54:07.069Z,5.50
2023-05-06T04:56:33.648Z,6.30
2023-05-06T04:59:00.017Z,6.25
2023-05-06T05:01:27.512Z,6.22
2023-05-06T05:03:53.864Z,5.88
2023-05-06T05:06:20.910Z,6.45
2023-05-06T05:08:48.052Z,5.78
2023-05-06T05:11:14.658Z,5.80
2023-05-06T05:13:41.097Z,5.93
2023-05-06T05:16:07.566Z,5.78
2023-05-06T05:18:37.065Z,7.30
2023-05-06T05:21:10.388Z,6.35
2023-05-06T05:23:36.731Z,6.30
2023-05-06T05:26:03.050Z,6.22
2023-05-06T05:28:29.592Z,6.30
2023-05-06T05:30:58.242Z,6.80
2023-05-06T05:33:24.811Z,6.20
2023-05-06T05:35:51.308Z,6.43
2023-05-06T05:38:17.810Z,6.95
2023-05-06T05:40:44.442Z,7.40
2023-05-06T05:43:11.038Z,7.93
2023-05-06T05:45:39.775Z,7.20
2023-05-06T05:48:08.265Z,7.25
2023-05-06T05:50:35.127Z,8.60
2023-05-06T05:53:01.945Z,7.13
2023-05-06T05:55:29.935Z,6.72
2023-05-06T05:57:56.472Z,7.95
2023-05-06T06:00:24.066Z,8.90
2023-05-06T06:02:57.632Z,6.55
2023-05-06T06:05:24.120Z,7.05
2023-05-06T06:07:50.797Z,7.38
2023-05-06T06:10:17.382Z,9.15
2023-05-06T06:12:44.856Z,9.50
2023-05-06T06:15:14.827Z,6.65
2023-05-06T06:17:43.460Z,7.30
2023-05-06T06:20:10.447Z,6.75
2023-05-06T06:22:37.549Z,7.90
2023-05-06T06:25:04.048Z,7.53
2023-05-06T06:27:31.768Z,6.22
2023-05-06T06:29:58.100Z,7.32
2023-05-06T06:32:24.491Z,6.88
2023-05-06T06:34:50.836Z,7.32
2023-05-06T06:37:17.160Z,6.85
2023-05-06T06:39:43.510Z,7.22
2023-05-06T06:42:09.822Z,7.93
2023-05-06T06:44:47.491Z,7.53
2023-05-06T06:47:13.804Z,7.22
2023-05-06T06:49:40.134Z,8.90
2023-05-06T06:52:06.585Z,7.60
2023-05-06T06:54:32.949Z,8.02
2023-05-06T06:56:59.285Z,8.23
2023-05-06T06:59:25.664Z,8.23
2023-05-06T07:01:51.965Z,7.65
2023-05-06T07:04:18.312Z,8.70
2023-05-06T07:06:44.800Z,8.02
2023-05-06T07:09:11.124Z,7.05
2023-05-06T07:11:37.426Z,6.68
2023-05-06T07:14:03.785Z,7.20
2023-05-06T07:16:30.109Z,7.50
2023-05-06T07:18:56.635Z,7.03
2023-05-06T07:21:23.069Z,7.57
2023-05-06T07:23:49.397Z,7.22
2023-05-06T07:26:15.709Z,7.00
2023-05-06T07:28:42.159Z,6.65
2023-05-06T07:31:08.528Z,6.70
2023-05-06T07:33:34.889Z,7.20
2023-05-06T07:36:01.271Z,6.60
2023-05-06T07:38:27.599Z,8.43
2023-05-06T07:40:53.959Z,8.75
2023-05-06T07:43:20.321Z,9.85
2023-05-06T07:45:46.678Z,7.75
2023-05-06T07:48:13.055Z,8.75
2023-05-06T07:50:39.425Z,7.53
2023-05-06T07:53:05.774Z,7.72
2023-05-06T07:55:33.816Z,6.63
2023-05-06T07:58:01.406Z,8.57
2023-05-06T08:00:27.748Z,7.57
2023-05-06T08:02:54.148Z,7.20
2023-05-06T08:05:20.567Z,8.02
2023-05-06T08:07:47.030Z,7.15
2023-05-06T08:10:13.407Z,6.10
2023-05-06T08:12:39.855Z,6.65
2023-05-06T08:15:06.295Z,7.05
2023-05-06T08:17:32.633Z,6.45
2023-05-06T08:19:59.011Z,6.65
2023-05-06T08:22:25.406Z,10.07
2023-05-06T08:24:51.818Z,7.63
2023-05-06T08:27:18.231Z,6.65
2023-05-06T08:29:44.562Z,7.30
2023-05-06T08:32:10.999Z,7.32
2023-05-06T08:34:37.386Z,7.70
2023-05-06T08:37:04.091Z,7.30
2023-05-06T08:39:30.928Z,7.60
2023-05-06T08:41:57.287Z,7.63
2023-05-06T08:44:23.626Z,6.95
2023-05-06T08:46:49.953Z,7.00
2023-05-06T08:49:16.325Z,8.38
2023-05-06T08:51:42.682Z,8.15
2023-05-06T08:54:09.002Z,7.18
2023-05-06T08:56:35.372Z,8.88
2023-05-06T08:59:02.353Z,7.32
2023-05-06T09:01:28.757Z,7.85
2023-05-06T09:03:55.199Z,6.72
2023-05-06T09:06:21.528Z,7.47
2023-05-06T09:08:47.857Z,8.63
2023-05-06T09:11:14.250Z,7.40
2023-05-06T09:13:40.588Z,8.40
2023-05-06T09:16:06.937Z,6.63
2023-05-06T09:18:33.304Z,7.18
2023-05-06T09:21:00.756Z,7.05
2023-05-06T09:23:27.316Z,6.15
2023-05-06T09:25:53.715Z,6.70
2023-05-06T09:28:20.080Z,7.65
2023-05-06T09:30:46.475Z,6.75
2023-05-06T09:33:12.916Z,7.47
2023-05-06T09:35:39.304Z,6.43
2023-05-06T09:38:07.138Z,7.07
2023-05-06T09:40:33.801Z,7.38
2023-05-06T09:43:00.163Z,7.38
2023-05-06T09:45:26.513Z,8.15
2023-05-06T09:47:52.895Z,7.43
2023-05-06T09:50:19.247Z,7.13
2023-05-06T09:52:45.559Z,7.07
2023-05-06T09:55:12.169Z,6.82
2023-05-06T09:57:38.680Z,6.75
2023-05-06T10:00:04.988Z,8.02
2023-05-06T10:02:38.935Z,6.63
2023-05-06T10:05:05.681Z,6.95
2023-05-06T10:07:32.305Z,8.40
2023-05-06T10:09:58.660Z,8.05
2023-05-06T10:12:25.041Z,6.07
2023-05-06T10:14:51.380Z,6.70
2023-05-06T10:17:17.761Z,7.65
2023-05-06T10:19:44.070Z,7.50
2023-05-06T10:22:10.391Z,6.90
2023-05-06T10:24:36.796Z,6.97
2023-05-06T10:27:03.137Z,7.40
2023-05-06T10:29:29.452Z,6.68
2023-05-06T10:31:55.850Z,6.35
2023-05-06T10:34:22.220Z,7.07
2023-05-06T10:36:48.529Z,7.93
2023-05-06T10:39:14.911Z,6.55
2023-05-06T10:41:41.255Z,7.18
2023-05-06T10:44:07.580Z,7.55
2023-05-06T10:46:33.954Z,8.07
2023-05-06T10:49:00.291Z,8.25
2023-05-06T10:51:26.613Z,7.43
2023-05-06T10:53:52.973Z,6.75
2023-05-06T10:56:19.279Z,7.55
2023-05-06T10:58:45.617Z,7.15
2023-05-06T11:01:12.055Z,6.32
2023-05-06T11:03:38.437Z,6.60
2023-05-06T11:06:04.789Z,7.15
2023-05-06T11:08:31.197Z,7.40
2023-05-06T11:10:57.613Z,7.70
2023-05-06T11:13:24.079Z,8.27
2023-05-06T11:15:50.573Z,7.97
2023-05-06T11:18:16.905Z,7.65
2023-05-06T11:20:43.225Z,7.55
2023-05-06T11:23:09.586Z,8.23
2023-05-06T11:25:35.903Z,7.80
2023-05-06T11:28:02.211Z,7.10
2023-05-06T11:30:28.586Z,9.02
2023-05-06T11:32:54.984Z,8.73
2023-05-06T11:35:21.357Z,7.57
2023-05-06T11:37:47.845Z,9.68
2023-05-06T11:40:14.333Z,8.45
2023-05-06T11:42:40.806Z,7.95
2023-05-06T11:45:07.178Z,8.80
2023-05-06T11:47:33.508Z,7.55
2023-05-06T11:49:59.861Z,8.10
2023-05-06T11:52:26.265Z,7.55
2023-05-06T11:54:52.590Z,7.10
2023-05-06T11:57:18.909Z,7.13
2023-05-06T11:59:45.279Z,6.88
2023-05-06T12:02:11.589Z,8.65
2023-05-06T12:04:37.943Z,7.75
2023-05-06T12:07:04.391Z,7.88
2023-05-06T12:09:30.732Z,7.63
2023-05-06T12:11:57.051Z,7.47
2023-05-06T12:14:23.406Z,7.22
2023-05-06T12:16:49.747Z,7.60
2023-05-06T12:19:16.093Z,7.95
2023-05-06T12:21:42.449Z,7.90
2023-05-06T12:24:08.831Z,6.68
2023-05-06T12:26:35.210Z,7.07
2023-05-06T12:29:01.586Z,8.65
2023-05-06T12:31:27.960Z,7.15
2023-05-06T12:33:56.674Z,6.80
2023-05-06T12:36:23.509Z,10.27
2023-05-06T12:38:49.862Z,6.72
2023-05-06T12:41:16.202Z,6.95
2023-05-06T12:43:42.562Z,6.78
2023-05-06T12:46:08.991Z,7.13
2023-05-06T12:48:35.429Z,7.45
2023-05-06T12:51:01.824Z,7.38
2023-05-06T12:53:28.142Z,6.40
2023-05-06T12:55:54.470Z,5.95
2023-05-06T12:58:20.820Z,7.30
2023-05-06T13:00:47.158Z,6.93
2023-05-06T13:03:13.593Z,6.53
2023-05-06T13:05:40.030Z,6.75
2023-05-06T13:08:06.368Z,6.50
2023-05-06T13:10:32.692Z,7.35
2023-05-06T13:12:59.167Z,6.97
2023-05-06T13:15:25.551Z,6.45
2023-05-06T13:17:51.891Z,6.13
2023-05-06T13:20:18.271Z,6.18
2023-05-06T13:22:54.261Z,5.82
2023-05-06T13:25:20.972Z,5.75
2023-05-06T13:27:47.487Z,6.30
2023-05-06T13:30:13.968Z,5.70
2023-05-06T13:32:40.408Z,6.38
2023-05-06T13:35:06.742Z,5.57
2023-05-06T13:37:33.057Z,6.03
2023-05-06T13:39:59.576Z,4.97
2023-05-06T13:42:25.893Z,5.30
2023-05-06T13:44:52.219Z,5.65
2023-05-06T13:47:18.566Z,6.45
2023-05-06T13:49:44.902Z,5.45
2023-05-06T13:52:11.284Z,5.38
2023-05-06T13:54:37.733Z,5.72
2023-05-06T13:57:04.080Z,5.65
2023-05-06T13:59:30.395Z,5.50
2023-05-06T14:01:57.316Z,5.38
2023-05-06T14:04:23.740Z,4.55
2023-05-06T14:06:50.227Z,5.25
2023-05-06T14:09:16.571Z,5.85
2023-05-06T14:11:42.895Z,4.47
2023-05-06T14:14:09.233Z,5.40
2023-05-06T14:16:35.668Z,4.85
2023-05-06T14:19:02.123Z,5.03
2023-05-06T14:21:28.460Z,5.82
2023-05-06T14:23:55.359Z,5.50
2023-05-06T14:26:21.676Z,6.82
2023-05-06T14:28:47.998Z,7.40
2023-05-06T14:31:14.391Z,7.70
2023-05-06T14:33:40.723Z,9.68
2023-05-06T14:36:07.023Z,10.48
2023-05-06T14:38:33.376Z,14.32
2023-05-06T14:40:59.708Z,9.90
2023-05-06T14:43:26.019Z,12.23
2023-05-06T14:45:52.455Z,11.18
2023-05-06T14:48:18.798Z,11.98
2023-05-06T14:50:45.126Z,10.82
2023-05-06T14:53:11.500Z,11.35
2023-05-06T14:55:37.813Z,10.93
2023-05-06T14:58:04.129Z,12.75
2023-05-06T15:00:30.533Z,11.48
2023-05-06T15:02:56.878Z,11.48
2023-05-06T15:05:23.214Z,13.10
2023-05-06T15:07:49.595Z,13.27
2023-05-06T15:10:16.011Z,12.85
2023-05-06T15:12:42.380Z,11.63
2023-05-06T15:15:08.894Z,11.25
2023-05-06T15:17:35.337Z,12.70
2023-05-06T15:20:01.786Z,13.70
2023-05-06T15:22:28.329Z,11.38
2023-05-06T15:24:54.645Z,11.20
2023-05-06T15:27:20.988Z,11.40
2023-05-06T15:29:47.370Z,11.27
2023-05-06T15:32:13.748Z,10.82
2023-05-06T15:34:40.071Z,10.48
2023-05-06T15:37:06.433Z,11.15
2023-05-06T15:39:32.771Z,10.27
2023-05-06T15:41:59.124Z,10.43
2023-05-06T15:46:52.961Z,9.07
2023-05-06T15:49:47.418Z,8.70
2023-05-06T15:52:05.769Z,9.75
2023-05-06T15:54:32.723Z,9.32
2023-05-06T15:56:59.918Z,9.20
2023-05-06T15:59:26.318Z,9.23
2023-05-06T16:04:22.184Z,8.75
2023-05-06T16:06:48.704Z,9.00
2023-05-06T16:09:15.040Z,9.02
2023-05-06T16:11:41.359Z,8.63
2023-05-06T16:14:07.702Z,9.55
2023-05-06T16:16:34.229Z,10.52
2023-05-06T16:19:00.614Z,9.30
2023-05-06T16:21:27.005Z,9.30
2023-05-06T16:23:53.409Z,9.43
2023-05-06T16:26:19.730Z,9.80
2023-05-06T16:28:46.123Z,9.55
2023-05-06T16:31:12.574Z,10.13
2023-05-06T16:33:38.915Z,9.63
2023-05-06T16:36:05.402Z,9.32
2023-05-06T16:38:31.779Z,9.50
2023-05-06T16:40:58.225Z,11.05
2023-05-06T16:43:24.620Z,10.05
2023-05-06T16:45:50.966Z,9.40
2023-05-06T16:48:17.365Z,10.23
2023-05-06T16:50:43.840Z,9.93
2023-05-06T16:53:10.172Z,10.20
2023-05-06T16:55:36.492Z,10.70
2023-05-06T16:58:02.879Z,10.65
2023-05-06T17:00:29.199Z,10.52
2023-05-06T17:02:55.788Z,10.63
2023-05-06T17:05:22.360Z,10.70
2023-05-06T17:07:49.693Z,10.27
2023-05-06T17:10:16.584Z,9.88
2023-05-06T17:12:43.049Z,10.18
2023-05-06T17:15:09.415Z,9.63
2023-05-06T17:17:35.783Z,11.27
2023-05-06T17:20:02.303Z,10.10
2023-05-06T17:22:28.621Z,10.95
2023-05-06T17:24:54.939Z,10.20
2023-05-06T17:27:21.298Z,10.18
2023-05-06T17:29:47.621Z,12.40
2023-05-06T17:32:13.932Z,10.60
2023-05-06T17:34:40.316Z,10.20
2023-05-06T17:37:06.678Z,9.75
2023-05-06T17:39:33.005Z,10.55
2023-05-06T17:41:59.408Z,11.25
2023-05-06T17:44:25.738Z,9.95
2023-05-06T17:46:52.125Z,9.60
2023-05-06T17:49:18.545Z,10.18
2023-05-06T17:51:44.844Z,9.68
2023-05-06T17:54:11.158Z,9.82
2023-05-06T17:56:37.530Z,10.35
2023-05-06T17:59:03.855Z,9.25
2023-05-06T18:01:30.235Z,9.48
2023-05-06T18:03:56.779Z,7.93
2023-05-06T18:06:23.196Z,8.00
2023-05-06T18:08:49.510Z,8.80
2023-05-06T18:11:15.870Z,8.40
2023-05-06T18:13:42.189Z,9.35
2023-05-06T18:16:08.662Z,8.88
2023-05-06T18:18:35.054Z,9.50
2023-05-06T18:21:01.363Z,10.60
2023-05-06T18:23:27.676Z,8.30
2023-05-06T18:25:54.049Z,9.52
2023-05-06T18:28:20.394Z,8.93
2023-05-06T18:30:46.719Z,9.07
2023-05-06T18:33:13.220Z,8.63
2023-05-06T18:35:39.617Z,8.55
2023-05-06T18:38:05.993Z,10.18
2023-05-06T18:40:32.374Z,8.45
2023-05-06T18:42:58.700Z,6.97
2023-05-06T18:45:25.018Z,8.07
2023-05-06T18:47:51.452Z,7.28
2023-05-06T18:50:17.808Z,7.82
2023-05-06T18:52:44.172Z,7.50
2023-05-06T18:55:10.695Z,7.47
2023-05-06T18:57:37.243Z,9.05
2023-05-06T19:00:03.602Z,9.82
2023-05-06T19:02:29.988Z,7.05
2023-05-06T19:04:56.329Z,7.63
2023-05-06T19:07:22.684Z,8.10
2023-05-06T19:09:49.085Z,8.27
2023-05-06T19:12:15.393Z,7.40
2023-05-06T19:14:41.761Z,7.65
2023-05-06T19:17:08.218Z,6.97
2023-05-06T19:19:34.608Z,7.45
2023-05-06T19:22:00.946Z,8.18
2023-05-06T19:24:27.322Z,7.85
2023-05-06T19:26:53.636Z,7.68
2023-05-06T19:29:19.963Z,7.75
2023-05-06T19:31:46.368Z,8.27
2023-05-06T19:34:12.697Z,7.38
2023-05-06T19:36:39.153Z,8.45
2023-05-06T19:39:05.515Z,7.55
2023-05-06T19:41:31.855Z,8.00
2023-05-06T19:43:58.311Z,8.15
2023-05-06T19:46:24.725Z,7.70
2023-05-06T19:48:51.094Z,7.10
2023-05-06T19:51:17.426Z,6.85
2023-05-06T19:53:43.803Z,7.40
2023-05-06T19:56:10.121Z,7.32
2023-05-06T19:58:36.454Z,6.90
2023-05-06T20:01:02.808Z,7.60
2023-05-06T20:03:29.204Z,7.18
2023-05-06T20:05:55.586Z,7.40
2023-05-06T20:08:21.970Z,7.82
2023-05-06T20:10:48.292Z,6.38
2023-05-06T20:13:14.682Z,6.43
2023-05-06T20:15:41.080Z,6.82
2023-05-06T20:18:07.454Z,7.15
2023-05-06T20:20:33.889Z,8.07
2023-05-06T20:23:00.272Z,7.93
2023-05-06T20:25:26.605Z,6.78
2023-05-06T20:27:52.919Z,7.55
2023-05-06T20:30:19.329Z,7.30
2023-05-06T20:32:45.848Z,7.88
2023-05-06T20:35:12.335Z,6.40
2023-05-06T20:37:38.969Z,7.13
2023-05-06T20:40:05.286Z,6.78
2023-05-06T20:42:31.602Z,7.47
2023-05-06T20:44:57.978Z,7.15
2023-05-06T20:47:24.305Z,7.35
2023-05-06T20:49:50.623Z,6.15
2023-05-06T20:52:16.972Z,6.70
2023-05-06T20:54:43.319Z,6.88
2023-05-06T20:57:09.653Z,7.57
2023-05-06T20:59:36.023Z,6.93
2023-05-06T21:02:02.377Z,7.93
2023-05-06T21:04:28.797Z,6.97
2023-05-06T21:06:55.175Z,6.68
2023-05-06T21:09:21.512Z,6.70
2023-05-06T21:11:47.827Z,6.80
2023-05-06T21:14:14.188Z,8.57
2023-05-06T21:16:40.542Z,6.85
2023-05-06T21:19:06.867Z,7.85
2023-05-06T21:21:33.308Z,7.00
2023-05-06T21:23:59.638Z,6.90
2023-05-06T21:26:25.964Z,8.20
2023-05-06T21:28:52.354Z,7.03
2023-05-06T21:31:18.722Z,7.40
2023-05-06T21:33:45.084Z,8.45
2023-05-06T21:36:11.472Z,7.13
2023-05-06T21:38:37.800Z,8.18
2023-05-06T21:41:04.117Z,8.48
2023-05-06T21:43:31.444Z,6.82
2023-05-06T21:45:59.621Z,7.47
2023-05-06T21:48:25.948Z,7.47
2023-05-06T21:50:52.311Z,6.30
2023-05-06T21:53:18.642Z,6.82
2023-05-06T21:55:44.977Z,7.63
2023-05-06T21:58:11.339Z,7.47
2023-05-06T22:00:37.674Z,6.97
2023-05-06T22:03:04.176Z,6.50
2023-05-06T22:05:30.658Z,8.20
2023-05-06T22:07:56.965Z,7.05
2023-05-06T22:10:23.308Z,6.88
2023-05-06T22:12:49.731Z,6.70
2023-05-06T22:15:16.049Z,7.07
2023-05-06T22:17:42.475Z,7.43
2023-05-06T22:20:08.936Z,7.43
2023-05-06T22:22:35.834Z,7.93
2023-05-06T22:25:02.292Z,6.43
2023-05-06T22:27:28.679Z,6.35
2023-05-06T22:29:55.002Z,6.57
2023-05-06T22:32:21.330Z,6.20
2023-05-06T22:34:47.684Z,5.97
2023-05-06T22:37:14.033Z,7.32
2023-05-06T22:39:40.368Z,6.03
2023-05-06T22:42:06.733Z,7.30
2023-05-06T22:44:33.059Z,7.00
2023-05-06T22:46:59.400Z,6.28
2023-05-06T22:49:25.782Z,6.75
2023-05-06T22:51:52.096Z,5.95
2023-05-06T22:54:18.419Z,6.20
2023-05-06T22:56:44.778Z,6.07
2023-05-06T22:59:11.110Z,6.00
2023-05-06T23:01:37.525Z,5.53
2023-05-06T23:04:03.937Z,6.10
2023-05-06T23:06:30.270Z,6.18
2023-05-06T23:08:56.603Z,6.00
2023-05-06T23:11:23.064Z,5.55
2023-05-06T23:13:49.364Z,5.88
2023-05-06T23:16:15.827Z,5.72
2023-05-06T23:18:42.254Z,5.68
2023-05-06T23:21:08.631Z,5.55
2023-05-06T23:23:34.964Z,6.00
2023-05-06T23:26:01.372Z,5.65
2023-05-06T23:28:27.703Z,5.70
2023-05-06T23:30:54.046Z,5.47
2023-05-06T23:33:20.495Z,5.53
2023-05-06T23:35:46.837Z,5.70
2023-05-06T23:38:13.238Z,5.90
2023-05-06T23:40:39.662Z,5.63
2023-05-06T23:43:05.988Z,6.00
2023-05-06T23:45:32.294Z,5.35
2023-05-06T23:47:58.762Z,4.97
2023-05-06T23:50:25.116Z,6.10
2023-05-06T23:52:51.431Z,6.28
2023-05-06T23:55:17.780Z,5.72
2023-05-06T23:57:44.099Z,6.00
